Time;durP1;ratioP1;P1;durP2;ratioP2;P2;SDS_P1;SDS_P2;PMS_P1;PMS_P2;Temp;Humidity;BMP_temperature;BMP_pressure;BME280_temperature;BME280_humidity;BME280_pressure;Samples;Min_cycle;Max_cycle;Signal;HPM_P1;HPM_P2
2023/09/24 00:01:53;;;;;;;6.40;1.30;;;13.50;99.90;;;;;;5060448;28;20070;-71
2023/09/24 00:04:19;;;;;;;4.30;1.63;;;13.50;99.90;;;;;;5042472;28;20488;-70
2023/09/24 00:06:45;;;;;;;5.20;1.52;;;13.50;99.90;;;;;;5059304;28;20090;-71
2023/09/24 00:09:11;;;;;;;;;;;13.40;99.90;;;;;;5043226;28;20448;-71
2023/09/24 00:11:37;;;;;;;3.50;1.33;;;13.40;99.90;;;;;;5045901;28;19920;-70
2023/09/24 00:14:03;;;;;;;4.00;1.17;;;13.40;99.90;;;;;;5045532;28;20098;-71
2023/09/24 00:16:29;;;;;;;3.33;1.33;;;13.40;99.90;;;;;;5046024;28;20048;-70
2023/09/24 00:18:54;;;;;;;2.10;1.00;;;13.30;99.90;;;;;;5030717;28;20040;-70
2023/09/24 00:21:20;;;;;;;4.47;1.13;;;13.30;99.90;;;;;;5042849;28;20356;-70
2023/09/24 00:23:46;;;;;;;4.50;1.10;;;13.30;99.90;;;;;;5064893;28;20273;-71
2023/09/24 00:26:11;;;;;;;6.00;1.10;;;13.20;99.90;;;;;;5055940;28;20070;-71
2023/09/24 00:28:37;;;;;;;4.90;1.30;;;13.30;99.90;;;;;;5063276;28;20440;-71
2023/09/24 00:31:03;;;;;;;3.00;1.30;;;13.20;99.90;;;;;;5041437;28;20048;-71
2023/09/24 00:33:29;;;;;;;2.92;1.02;;;13.20;99.90;;;;;;5044151;28;20080;-71
2023/09/24 00:35:57;;;;;;;;;;;13.20;99.90;;;;;;5043901;28;20482;-70
2023/09/24 00:38:22;;;;;;;;;;;13.20;99.90;;;;;;5047397;28;19999;-70
2023/09/24 00:40:48;;;;;;;5.05;1.17;;;13.10;99.90;;;;;;5042949;28;20035;-71
2023/09/24 00:43:34;;;;;;;2.07;0.77;;;13.10;99.90;;;;;;5059394;28;20032;-71
2023/09/24 00:46:04;;;;;;;3.33;1.08;;;13.10;99.90;;;;;;5036366;28;20323;-70
2023/09/24 00:48:31;;;;;;;4.78;1.23;;;13.10;99.90;;;;;;5051704;28;20051;-71
2023/09/24 00:51:12;;;;;;;4.53;1.33;;;13.00;99.90;;;;;;5039233;28;20051;-71
2023/09/24 00:53:38;;;;;;;4.47;1.25;;;13.10;99.90;;;;;;5063707;28;20134;-71
2023/09/24 00:56:04;;;;;;;2.28;1.13;;;13.00;99.90;;;;;;5065616;28;20036;-71
2023/09/24 00:58:34;;;;;;;5.90;0.90;;;13.00;99.90;;;;;;5045466;28;20041;-71
2023/09/24 01:01:00;;;;;;;3.60;1.08;;;13.00;99.90;;;;;;5061879;28;20151;-70
2023/09/24 01:03:26;;;;;;;5.07;2.15;;;13.00;99.90;;;;;;5068563;28;20040;-70
2023/09/24 01:05:53;;;;;;;;;;;13.00;99.90;;;;;;5061477;28;20059;-70
2023/09/24 01:08:24;;;;;;;4.75;1.27;;;13.00;99.90;;;;;;5043317;28;19916;-70
2023/09/24 01:10:51;;;;;;;6.15;1.13;;;13.00;99.90;;;;;;5055616;28;20453;-71
2023/09/24 01:13:22;;;;;;;5.18;1.30;;;13.00;99.90;;;;;;5062594;28;20311;-71
2023/09/24 01:15:52;;;;;;;3.65;1.10;;;13.00;99.90;;;;;;5041512;28;20055;-71
2023/09/24 01:18:20;;;;;;;4.55;1.30;;;12.90;99.90;;;;;;5061276;28;20094;-70
2023/09/24 01:20:47;;;;;;;2.95;1.33;;;12.90;99.90;;;;;;5064109;28;20067;-71
2023/09/24 01:23:16;;;;;;;;;;;12.90;99.90;;;;;;5045185;28;20051;-71
2023/09/24 01:25:45;;;;;;;3.70;1.40;;;12.90;99.90;;;;;;5044263;28;19959;-71
2023/09/24 01:28:11;;;;;;;5.13;1.48;;;12.80;99.90;;;;;;5059377;28;20033;-71
2023/09/24 01:30:38;;;;;;;5.60;0.95;;;12.80;99.90;;;;;;5036511;28;20044;-71
2023/09/24 01:33:05;;;;;;;7.60;1.60;;;12.80;99.90;;;;;;5027904;28;20055;-70
2023/09/24 01:35:33;;;;;;;3.03;0.95;;;12.80;99.90;;;;;;5059213;28;20041;-71
2023/09/24 01:38:05;;;;;;;6.63;1.48;;;12.70;99.90;;;;;;5043473;28;20037;-70
2023/09/24 01:40:34;;;;;;;3.53;1.13;;;12.70;99.90;;;;;;5039440;28;20037;-71
2023/09/24 01:43:02;;;;;;;4.32;1.00;;;12.70;99.90;;;;;;5062827;28;20048;-71
2023/09/24 01:45:28;;;;;;;3.45;0.90;;;12.70;99.90;;;;;;5038792;28;20403;-71
2023/09/24 01:47:55;;;;;;;5.80;0.90;;;12.70;99.90;;;;;;5041531;28;20048;-70
2023/09/24 01:50:26;;;;;;;6.18;1.40;;;12.70;99.90;;;;;;5062214;28;20102;-70
2023/09/24 01:52:52;;;;;;;4.80;1.25;;;12.70;99.90;;;;;;5044204;28;20052;-71
2023/09/24 01:55:19;;;;;;;3.08;0.90;;;12.70;99.90;;;;;;5041735;28;20459;-71
2023/09/24 01:57:45;;;;;;;6.82;1.30;;;12.70;99.90;;;;;;5055082;28;20045;-70
2023/09/24 02:00:12;;;;;;;5.72;1.20;;;12.70;99.90;;;;;;5054305;28;20055;-71
2023/09/24 02:02:41;;;;;;;3.13;0.93;;;12.70;99.90;;;;;;5060415;28;20308;-71
2023/09/24 02:05:09;;;;;;;2.92;1.05;;;12.70;99.90;;;;;;5041818;28;20041;-71
2023/09/24 02:07:38;;;;;;;3.00;1.10;;;12.70;99.90;;;;;;5042862;28;20044;-71
2023/09/24 02:10:05;;;;;;;4.82;1.48;;;12.80;99.90;;;;;;5039535;28;20049;-70
2023/09/24 02:12:38;;;;;;;2.60;1.20;;;12.70;99.90;;;;;;5061360;28;20089;-71
2023/09/24 02:15:11;;;;;;;4.47;1.13;;;12.70;99.90;;;;;;5062255;28;20142;-71
2023/09/24 02:17:41;;;;;;;2.95;1.20;;;12.70;99.90;;;;;;5053759;28;20351;-70
2023/09/24 02:20:18;;;;;;;5.57;1.38;;;12.70;99.90;;;;;;5039017;28;20040;-70
2023/09/24 02:22:48;;;;;;;3.95;1.40;;;12.70;99.90;;;;;;5045248;28;20045;-70
2023/09/24 02:25:15;;;;;;;3.30;1.48;;;12.70;99.90;;;;;;5042039;28;20044;-71
2023/09/24 02:27:41;;;;;;;6.60;1.92;;;12.70;99.90;;;;;;5060295;28;20439;-71
2023/09/24 02:30:08;;;;;;;4.28;1.27;;;12.70;99.90;;;;;;5056505;28;20090;-71
2023/09/24 02:32:34;;;;;;;4.20;1.20;;;12.70;99.90;;;;;;5025477;28;20047;-71
2023/09/24 02:34:59;;;;;;;7.72;1.95;;;12.70;99.90;;;;;;5064449;28;20040;-71
2023/09/24 02:37:28;;;;;;;4.00;1.70;;;12.70;99.90;;;;;;5050417;28;20595;-71
2023/09/24 02:39:54;;;;;;;5.95;1.58;;;12.70;99.90;;;;;;5056883;28;20111;-71
2023/09/24 02:42:20;;;;;;;;;;;12.70;99.90;;;;;;5031416;28;20032;-70
2023/09/24 02:44:47;;;;;;;3.10;1.20;;;12.70;99.90;;;;;;5066488;28;19970;-71
2023/09/24 02:47:13;;;;;;;4.65;1.77;;;12.70;99.90;;;;;;5063283;28;20041;-70
2023/09/24 02:49:39;;;;;;;3.88;2.10;;;12.70;99.90;;;;;;5065166;28;20090;-71
2023/09/24 02:52:05;;;;;;;5.90;1.83;;;12.70;99.90;;;;;;5046446;28;20443;-71
2023/09/24 02:54:30;;;;;;;3.37;1.60;;;12.70;99.90;;;;;;5046768;28;20958;-71
2023/09/24 02:56:56;;;;;;;5.27;1.70;;;12.80;99.90;;;;;;5061484;28;20051;-71
2023/09/24 02:59:22;;;;;;;3.78;1.85;;;12.80;99.90;;;;;;5063226;28;20404;-71
2023/09/24 03:01:48;;;;;;;3.72;1.75;;;12.80;99.90;;;;;;5067565;28;20041;-70
2023/09/24 03:04:15;;;;;;;3.60;1.80;;;12.80;99.90;;;;;;5064475;28;20501;-71
2023/09/24 03:06:41;;;;;;;3.13;1.55;;;12.80;99.90;;;;;;5066236;28;20791;-70
2023/09/24 03:09:10;;;;;;;4.88;1.83;;;12.80;99.90;;;;;;5043730;28;20405;-71
2023/09/24 03:11:36;;;;;;;6.95;2.15;;;12.80;99.90;;;;;;5067012;28;20047;-71
2023/09/24 03:14:03;;;;;;;5.18;1.60;;;12.80;99.90;;;;;;5032498;28;20153;-70
2023/09/24 03:16:29;;;;;;;3.60;1.95;;;12.80;99.90;;;;;;5045048;28;20497;-70
2023/09/24 03:18:55;;;;;;;3.42;1.92;;;12.80;99.90;;;;;;5064653;28;20064;-71
2023/09/24 03:21:21;;;;;;;3.47;1.80;;;12.80;99.90;;;;;;5034457;28;20044;-71
2023/09/24 03:23:47;;;;;;;4.47;2.03;;;12.70;99.90;;;;;;5045897;28;20122;-71
2023/09/24 03:26:16;;;;;;;8.15;2.40;;;12.70;99.90;;;;;;5065346;28;20098;-71
2023/09/24 03:28:42;;;;;;;6.10;2.13;;;12.70;99.90;;;;;;5049700;28;20045;-71
2023/09/24 03:31:15;;;;;;;5.07;2.17;;;12.70;99.90;;;;;;5048030;28;20040;-71
2023/09/24 03:33:41;;;;;;;3.90;2.00;;;12.70;99.90;;;;;;5054193;28;20085;-73
2023/09/24 03:36:10;;;;;;;5.88;2.42;;;12.70;99.90;;;;;;5049378;28;20052;-74
2023/09/24 03:38:36;;;;;;;3.92;1.90;;;12.60;99.90;;;;;;5062368;28;20119;-75
2023/09/24 03:41:03;;;;;;;6.68;2.72;;;12.60;99.90;;;;;;5067537;28;20044;-73
2023/09/24 03:43:29;;;;;;;5.82;2.20;;;12.60;99.90;;;;;;5037137;28;20435;-74
2023/09/24 03:45:55;;;;;;;4.20;2.40;;;12.60;99.90;;;;;;5062832;28;20137;-73
2023/09/24 03:48:23;;;;;;;5.85;2.47;;;12.60;99.90;;;;;;5067034;28;20044;-73
2023/09/24 03:50:49;;;;;;;7.82;2.45;;;12.60;99.90;;;;;;5063310;28;20039;-73
2023/09/24 03:53:18;;;;;;;6.43;2.67;;;12.50;99.90;;;;;;5041715;28;20495;-74
2023/09/24 03:55:47;;;;;;;4.57;2.42;;;12.50;99.90;;;;;;5062626;28;20041;-73
2023/09/24 03:58:14;;;;;;;8.15;2.65;;;12.50;99.90;;;;;;5069542;28;20074;-73
2023/09/24 04:00:41;;;;;;;4.53;2.55;;;12.50;99.90;;;;;;5046165;28;20046;-73
2023/09/24 04:03:08;;;;;;;;;;;12.40;99.90;;;;;;5062516;28;20294;-73
2023/09/24 04:05:33;;;;;;;6.77;2.40;;;12.40;99.90;;;;;;5040462;28;20020;-74
2023/09/24 04:08:01;;;;;;;4.90;1.98;;;12.40;99.90;;;;;;5061121;28;20129;-73
2023/09/24 04:10:28;;;;;;;6.57;2.90;;;12.40;99.90;;;;;;5061363;28;20049;-73
2023/09/24 04:12:54;;;;;;;6.55;2.70;;;12.40;99.90;;;;;;5045170;28;20044;-74
2023/09/24 04:15:27;;;;;;;5.93;2.78;;;12.30;99.90;;;;;;5041395;28;20051;-73
2023/09/24 04:17:53;;;;;;;8.88;2.92;;;12.40;99.90;;;;;;5040496;28;20056;-74
2023/09/24 04:20:20;;;;;;;7.00;2.58;;;12.40;99.90;;;;;;5059446;28;20048;-74
2023/09/24 04:22:45;;;;;;;6.55;2.88;;;12.40;99.90;;;;;;5041715;28;20036;-73
2023/09/24 04:25:15;;;;;;;11.50;3.88;;;12.40;99.90;;;;;;5042847;28;20420;-73
2023/09/24 04:27:44;;;;;;;6.35;2.88;;;12.40;99.90;;;;;;5058720;28;20597;-74
2023/09/24 04:30:15;;;;;;;4.15;2.60;;;12.40;99.90;;;;;;5042006;28;20052;-74
2023/09/24 04:32:41;;;;;;;4.63;2.63;;;12.40;99.90;;;;;;5040320;28;20279;-74
2023/09/24 04:35:09;;;;;;;;;;;12.40;99.90;;;;;;5059709;28;20513;-74
2023/09/24 04:37:36;;;;;;;4.00;2.33;;;12.40;99.90;;;;;;5061377;28;20158;-74
2023/09/24 04:40:05;;;;;;;7.63;3.45;;;12.40;99.90;;;;;;5037375;28;20059;-73
2023/09/24 04:42:31;;;;;;;6.93;3.10;;;12.30;99.90;;;;;;5061913;28;20353;-73
2023/09/24 04:44:56;;;;;;;11.07;3.22;;;12.40;99.90;;;;;;5055401;28;20083;-73
2023/09/24 04:47:22;;;;;;;6.47;2.40;;;12.40;99.90;;;;;;5058518;28;21158;-74
2023/09/24 04:49:47;;;;;;;6.80;2.90;;;12.30;99.90;;;;;;5031999;28;20036;-74
2023/09/24 04:52:13;;;;;;;7.10;2.83;;;12.40;99.90;;;;;;5048668;28;20044;-73
2023/09/24 04:54:38;;;;;;;5.68;2.75;;;12.50;99.90;;;;;;5069111;28;20028;-73
2023/09/24 04:57:04;;;;;;;5.43;2.60;;;12.30;99.90;;;;;;5046917;28;20127;-74
2023/09/24 04:59:30;;;;;;;5.22;3.40;;;12.30;99.90;;;;;;5041289;28;20060;-74
2023/09/24 05:01:55;;;;;;;12.27;3.77;;;12.40;99.90;;;;;;5055663;28;20048;-73
2023/09/24 05:04:22;;;;;;;5.57;3.13;;;12.30;99.90;;;;;;5031694;28;20298;-74
2023/09/24 05:06:47;;;;;;;5.82;2.97;;;12.20;99.90;;;;;;5034622;28;20082;-73
2023/09/24 05:09:13;;;;;;;7.77;2.77;;;12.20;99.90;;;;;;5063062;28;20086;-73
2023/09/24 05:11:39;;;;;;;5.97;3.10;;;12.20;99.90;;;;;;5061561;28;20285;-73
2023/09/24 05:14:04;;;;;;;6.37;3.27;;;12.10;99.90;;;;;;5067293;28;20539;-73
2023/09/24 05:16:30;;;;;;;6.93;2.90;;;12.10;99.90;;;;;;5052293;28;20562;-74
2023/09/24 05:18:56;;;;;;;7.43;2.70;;;12.10;99.90;;;;;;5063597;28;20281;-73
2023/09/24 05:21:22;;;;;;;6.75;2.65;;;12.10;99.90;;;;;;5047774;28;20464;-74
2023/09/24 05:23:48;;;;;;;8.68;2.60;;;12.10;99.90;;;;;;5040858;28;20136;-73
2023/09/24 05:26:14;;;;;;;8.50;3.20;;;12.00;99.90;;;;;;5063894;28;20090;-74
2023/09/24 05:28:40;;;;;;;;;;;12.00;99.90;;;;;;5047485;28;20450;-72
2023/09/24 05:31:06;;;;;;;5.70;3.28;;;12.00;99.90;;;;;;5043676;28;20797;-73
2023/09/24 05:33:32;;;;;;;7.68;2.85;;;11.90;99.90;;;;;;5049330;28;20538;-73
2023/09/24 05:35:58;;;;;;;6.45;2.67;;;11.90;99.90;;;;;;5025794;28;20084;-73
2023/09/24 05:38:26;;;;;;;6.10;3.30;;;11.90;99.90;;;;;;5060127;28;20456;-73
2023/09/24 05:40:52;;;;;;;5.38;2.88;;;11.90;99.90;;;;;;5042961;28;20461;-72
2023/09/24 05:43:19;;;;;;;8.80;2.80;;;11.90;99.90;;;;;;5047999;28;20032;-73
2023/09/24 05:45:49;;;;;;;6.13;2.92;;;11.90;99.90;;;;;;5061481;28;20165;-72
2023/09/24 05:48:15;;;;;;;8.43;3.15;;;11.90;99.90;;;;;;5040561;28;20561;-72
2023/09/24 05:50:44;;;;;;;6.20;3.15;;;11.90;99.90;;;;;;5058415;28;20028;-72
2023/09/24 05:53:10;;;;;;;8.20;2.75;;;11.90;99.90;;;;;;5047607;28;20054;-73
2023/09/24 05:55:36;;;;;;;6.63;3.05;;;11.90;99.90;;;;;;5035217;28;20072;-72
2023/09/24 05:58:04;;;;;;;8.65;3.42;;;11.90;99.90;;;;;;5060934;28;20083;-73
2023/09/24 06:00:31;;;;;;;7.85;3.10;;;11.90;99.90;;;;;;5024922;28;20048;-73
2023/09/24 06:02:57;;;;;;;6.05;3.40;;;11.80;99.90;;;;;;5055979;28;20045;-73
2023/09/24 06:05:23;;;;;;;;;;;11.90;99.90;;;;;;5053480;28;20049;-73
2023/09/24 06:07:49;;;;;;;9.27;3.08;;;11.80;99.90;;;;;;5045989;28;19931;-72
2023/09/24 06:10:15;;;;;;;7.40;3.40;;;11.80;99.90;;;;;;5040165;28;20040;-72
2023/09/24 06:12:40;;;;;;;8.30;3.40;;;11.90;99.90;;;;;;5041913;28;20064;-72
2023/09/24 06:15:10;;;;;;;7.40;3.08;;;11.80;99.90;;;;;;5043971;28;20325;-72
2023/09/24 06:17:36;;;;;;;8.25;2.75;;;11.80;99.90;;;;;;5066483;28;20037;-72
2023/09/24 06:20:03;;;;;;;7.20;3.38;;;11.80;99.90;;;;;;5043332;28;20731;-74
2023/09/24 06:22:29;;;;;;;7.32;3.08;;;11.90;99.90;;;;;;5065500;28;20047;-73
2023/09/24 06:24:55;;;;;;;8.27;2.92;;;11.80;99.90;;;;;;5042920;28;20504;-76
2023/09/24 06:27:22;;;;;;;7.40;3.17;;;11.90;99.90;;;;;;5047431;28;20044;-74
2023/09/24 06:29:47;;;;;;;6.05;3.17;;;11.90;99.90;;;;;;5030339;28;20123;-73
2023/09/24 06:32:13;;;;;;;10.20;3.42;;;11.90;99.90;;;;;;5060532;28;20131;-75
2023/09/24 06:34:39;;;;;;;8.82;3.20;;;11.90;99.90;;;;;;5063474;28;20037;-73
2023/09/24 06:37:05;;;;;;;7.70;2.72;;;12.00;99.90;;;;;;5049219;28;20041;-72
2023/09/24 06:39:33;;;;;;;6.00;3.13;;;12.00;99.90;;;;;;5047350;28;20039;-74
2023/09/24 06:42:00;;;;;;;8.15;3.25;;;12.00;99.90;;;;;;5066534;28;20032;-74
2023/09/24 06:44:26;;;;;;;7.75;3.78;;;12.10;99.90;;;;;;5044014;28;20048;-73
2023/09/24 06:46:52;;;;;;;5.97;3.08;;;12.10;99.90;;;;;;5028456;28;20052;-74
2023/09/24 06:49:18;;;;;;;;;;;12.10;99.90;;;;;;5049204;28;20294;-74
2023/09/24 06:51:44;;;;;;;11.10;4.00;;;12.20;99.90;;;;;;5065051;28;19916;-73
2023/09/24 06:54:10;;;;;;;6.88;3.17;;;12.20;99.90;;;;;;5061564;28;20051;-73
2023/09/24 06:56:35;;;;;;;10.57;3.70;;;12.20;99.90;;;;;;5042291;28;20501;-72
2023/09/24 06:59:01;;;;;;;10.48;3.92;;;12.20;99.90;;;;;;5030915;28;20047;-72
2023/09/24 07:01:27;;;;;;;8.95;3.53;;;12.30;99.90;;;;;;5036119;28;20048;-72
2023/09/24 07:03:53;;;;;;;9.70;3.50;;;12.30;99.90;;;;;;5046279;28;20043;-72
2023/09/24 07:06:21;;;;;;;6.47;3.57;;;12.30;99.90;;;;;;5060423;28;20218;-71
2023/09/24 07:08:46;;;;;;;7.35;3.15;;;12.30;99.90;;;;;;5043022;28;20285;-72
2023/09/24 07:11:34;;;;;;;5.00;3.15;;;12.30;99.90;;;;;;5042949;28;20049;-72
2023/09/24 07:14:04;;;;;;;7.05;3.40;;;12.40;99.90;;;;;;5055270;28;20048;-74
2023/09/24 07:16:30;;;;;;;8.63;3.90;;;12.40;99.90;;;;;;5059099;28;20036;-72
2023/09/24 07:18:56;;;;;;;;;;;12.40;99.90;;;;;;5060032;28;20044;-73
2023/09/24 07:21:25;;;;;;;7.63;3.20;;;12.40;99.90;;;;;;5044995;28;19931;-73
2023/09/24 07:23:55;;;;;;;7.75;3.42;;;12.40;99.90;;;;;;5045669;28;20492;-72
2023/09/24 07:26:22;;;;;;;9.10;4.18;;;12.50;99.90;;;;;;5041942;28;20044;-73
2023/09/24 07:28:48;;;;;;;9.63;3.60;;;12.60;99.90;;;;;;5062707;28;20048;-72
2023/09/24 07:31:16;;;;;;;9.43;3.50;;;12.60;99.90;;;;;;5050004;28;20040;-72
2023/09/24 07:33:42;;;;;;;7.75;3.42;;;12.60;99.90;;;;;;5049551;28;20485;-72
2023/09/24 07:36:12;;;;;;;9.20;3.03;;;12.70;99.90;;;;;;5046773;28;20037;-73
2023/09/24 07:38:41;;;;;;;8.13;3.55;;;12.80;99.90;;;;;;5065627;28;20554;-72
2023/09/24 07:41:07;;;;;;;6.78;2.88;;;12.80;99.90;;;;;;5030238;28;20071;-73
2023/09/24 07:43:37;;;;;;;10.20;3.72;;;12.90;99.90;;;;;;5020398;28;20041;-73
2023/09/24 07:46:05;;;;;;;9.63;3.72;;;13.00;99.90;;;;;;5039200;28;20131;-73
2023/09/24 07:48:31;;;;;;;6.07;3.30;;;13.00;99.90;;;;;;5045089;28;20041;-72
2023/09/24 07:50:58;;;;;;;5.13;3.08;;;13.10;99.90;;;;;;5060700;28;20041;-73
2023/09/24 07:53:24;;;;;;;8.30;3.15;;;13.10;99.90;;;;;;5031384;28;20492;-73
2023/09/24 07:56:09;;;;;;;6.80;3.15;;;13.20;99.90;;;;;;5060188;28;20044;-74
2023/09/24 07:58:37;;;;;;;8.77;3.78;;;13.30;99.90;;;;;;5062759;28;20040;-73
2023/09/24 08:01:09;;;;;;;5.50;2.85;;;13.40;99.90;;;;;;5042988;28;20387;-72
2023/09/24 08:03:39;;;;;;;8.80;2.97;;;13.40;99.90;;;;;;5041106;28;20163;-73
2023/09/24 08:06:04;;;;;;;;;;;13.50;99.90;;;;;;5037445;28;20051;-73
2023/09/24 08:08:31;;;;;;;5.18;2.92;;;13.60;99.90;;;;;;5061267;28;20291;-74
2023/09/24 08:11:02;;;;;;;7.57;2.70;;;13.60;99.90;;;;;;5040698;28;20056;-73
2023/09/24 08:13:28;;;;;;;6.40;2.90;;;13.70;99.90;;;;;;5035871;28;20084;-73
2023/09/24 08:15:57;;;;;;;7.40;2.65;;;13.70;99.90;;;;;;5037367;28;20083;-73
2023/09/24 08:18:24;;;;;;;11.35;3.05;;;13.70;99.90;;;;;;5036189;28;20040;-74
2023/09/24 08:20:50;;;;;;;4.93;2.75;;;13.80;99.90;;;;;;5038383;28;20075;-74
2023/09/24 08:23:18;;;;;;;8.68;2.60;;;13.80;99.90;;;;;;5063416;28;20028;-73
2023/09/24 08:25:43;;;;;;;6.00;2.40;;;13.90;99.90;;;;;;5062814;28;20059;-73
2023/09/24 08:28:13;;;;;;;6.90;2.40;;;13.90;99.90;;;;;;5028603;28;20361;-74
2023/09/24 08:30:39;;;;;;;5.85;2.53;;;14.00;99.90;;;;;;5061576;28;20064;-73
2023/09/24 08:33:07;;;;;;;6.25;2.58;;;14.10;99.90;;;;;;5056533;28;20454;-74
2023/09/24 08:35:36;;;;;;;10.02;2.50;;;14.20;99.90;;;;;;5043610;28;20101;-72
2023/09/24 08:38:02;;;;;;;6.72;2.42;;;14.20;99.90;;;;;;5036640;28;20041;-73
2023/09/24 08:40:30;;;;;;;6.70;2.50;;;14.30;99.90;;;;;;5059030;28;20098;-72
2023/09/24 08:42:59;;;;;;;6.50;2.35;;;14.40;99.90;;;;;;5063719;28;20432;-73
2023/09/24 08:45:29;;;;;;;5.47;2.05;;;14.50;99.90;;;;;;5041106;28;20048;-74
2023/09/24 08:48:07;;;;;;;;;;;;;;;;;;;;;
2023/09/24 08:50:41;;;;;;;6.75;2.22;;;14.60;99.90;;;;;;5045799;28;20040;-73
2023/09/24 08:53:12;;;;;;;5.68;2.10;;;14.60;99.90;;;;;;5030154;28;20406;-73
2023/09/24 08:55:43;;;;;;;9.27;1.98;;;14.70;99.90;;;;;;5058950;28;20149;-74
2023/09/24 08:58:11;;;;;;;6.20;2.03;;;14.80;99.90;;;;;;5023542;28;20036;-73
2023/09/24 09:00:38;;;;;;;6.05;2.03;;;14.90;99.90;;;;;;5048733;28;20506;-73
2023/09/24 09:03:04;;;;;;;7.57;1.88;;;14.90;99.90;;;;;;5058310;28;20516;-74
2023/09/24 09:05:35;;;;;;;8.82;2.13;;;15.00;99.90;;;;;;5026378;28;20413;-74
2023/09/24 09:08:03;;;;;;;6.70;1.83;;;15.00;99.90;;;;;;5043639;28;20048;-75
2023/09/24 09:10:37;;;;;;;4.00;1.92;;;15.10;99.90;;;;;;5063123;28;20120;-73
2023/09/24 09:13:04;;;;;;;6.65;1.70;;;15.20;99.90;;;;;;5055491;28;20103;-75
2023/09/24 09:15:30;;;;;;;6.93;1.67;;;15.30;99.90;;;;;;5060560;28;20046;-74
2023/09/24 09:17:56;;;;;;;;;;;15.30;99.90;;;;;;5059429;28;20495;-74
2023/09/24 09:20:42;;;;;;;6.80;1.67;;;15.40;99.90;;;;;;5057542;28;19931;-75
2023/09/24 09:23:12;;;;;;;6.47;1.80;;;15.50;99.90;;;;;;5057987;28;20043;-75
2023/09/24 09:25:52;;;;;;;4.30;1.50;;;15.60;99.90;;;;;;5062127;28;20463;-74
2023/09/24 09:28:25;;;;;;;6.35;1.55;;;15.60;99.90;;;;;;5041772;28;20119;-75
2023/09/24 09:31:05;;;;;;;6.40;1.75;;;15.70;99.90;;;;;;5039694;28;20052;-74
2023/09/24 09:33:42;;;;;;;4.47;1.40;;;15.80;99.90;;;;;;5045515;28;20516;-73
2023/09/24 09:36:33;;;;;;;3.13;1.40;;;15.90;99.90;;;;;;5042175;28;20048;-75
2023/09/24 09:39:07;;;;;;;3.83;1.60;;;16.00;99.90;;;;;;5037409;28;20116;-73
2023/09/24 09:41:33;;;;;;;8.90;2.08;;;16.00;99.90;;;;;;5041677;28;20044;-74
2023/09/24 09:44:06;;;;;;;6.35;1.58;;;16.10;99.90;;;;;;5059622;28;20462;-74
2023/09/24 09:46:35;;;;;;;4.78;2.10;;;16.10;99.90;;;;;;5037804;28;20098;-75
2023/09/24 09:49:07;;;;;;;7.45;1.77;;;16.20;99.90;;;;;;5058140;28;20075;-76
2023/09/24 09:51:48;;;;;;;5.68;1.27;;;16.30;99.90;;;;;;5043326;28;20071;-75
2023/09/24 09:54:17;;;;;;;7.45;1.92;;;16.30;99.90;;;;;;5062684;28;20033;-75
2023/09/24 09:56:43;;;;;;;7.57;1.48;;;16.30;99.90;;;;;;5046396;28;20562;-75
2023/09/24 09:59:09;;;;;;;4.97;1.67;;;16.40;99.90;;;;;;5032185;28;20044;-76
2023/09/24 10:01:36;;;;;;;4.43;1.55;;;16.40;99.90;;;;;;5069977;28;20052;-76
2023/09/24 10:04:08;;;;;;;4.80;1.40;;;16.50;99.90;;;;;;5033811;28;20040;-74
2023/09/24 10:06:37;;;;;;;7.30;1.38;;;16.50;99.90;;;;;;5062634;28;20048;-75
2023/09/24 10:09:37;;;;;;;4.10;1.33;;;16.60;99.90;;;;;;5048688;28;20135;-75
2023/09/24 10:12:07;;;;;;;4.40;1.10;;;16.70;99.90;;;;;;4997272;28;20056;-75
2023/09/24 10:14:54;;;;;;;8.45;2.05;;;16.70;99.90;;;;;;5031947;28;20032;-75
2023/09/24 10:17:22;;;;;;;4.10;1.40;;;16.80;99.90;;;;;;5039939;28;20532;-75
2023/09/24 10:19:53;;;;;;;7.38;1.55;;;16.90;99.90;;;;;;5032260;28;20066;-76
2023/09/24 10:22:30;;;;;;;5.97;1.40;;;17.00;99.90;;;;;;5061595;28;20055;-76
2023/09/24 10:24:56;;;;;;;5.93;1.50;;;17.10;99.90;;;;;;5053045;28;20040;-76
2023/09/24 10:28:02;;;;;;;4.85;1.60;;;17.20;99.90;;;;;;5050261;28;20059;-76
2023/09/24 10:30:47;;;;;;;4.07;2.22;;;17.20;99.90;;;;;;5051930;28;20132;-76
2023/09/24 10:33:13;;;;;;;5.55;1.30;;;17.30;99.90;;;;;;5048565;28;20133;-76
2023/09/24 10:35:38;;;;;;;4.68;1.17;;;17.40;99.90;;;;;;5049605;28;20085;-77
2023/09/24 10:38:04;;;;;;;2.67;1.00;;;17.50;99.90;;;;;;5048745;28;20059;-76
2023/09/24 10:40:30;;;;;;;3.75;1.50;;;17.60;99.90;;;;;;5067882;28;20139;-77
2023/09/24 10:43:14;;;;;;;;;;;17.70;99.90;;;;;;5043213;28;20049;-76
2023/09/24 10:45:40;;;;;;;5.22;1.13;;;17.70;99.90;;;;;;5050714;28;20368;-75
2023/09/24 10:48:06;;;;;;;4.80;1.20;;;17.70;99.90;;;;;;5050474;28;20048;-78
2023/09/24 10:50:37;;;;;;;3.70;1.33;;;17.80;99.90;;;;;;5050973;28;20040;-77
2023/09/24 10:53:05;;;;;;;4.65;1.20;;;17.80;99.90;;;;;;5069124;28;20129;-78
2023/09/24 10:55:36;;;;;;;8.40;1.00;;;17.90;99.90;;;;;;5063230;28;20052;-78
2023/09/24 10:58:18;;;;;;;11.02;1.40;;;17.90;99.90;;;;;;5049225;28;20041;-78
2023/09/24 11:00:49;;;;;;;5.32;1.33;;;18.00;99.90;;;;;;5044746;28;20047;-77
2023/09/24 11:03:17;;;;;;;4.05;1.33;;;18.10;99.90;;;;;;5044537;28;20052;-76
2023/09/24 11:05:49;;;;;;;6.15;1.50;;;18.20;99.90;;;;;;5046161;28;20472;-77
2023/09/24 11:08:16;;;;;;;4.63;1.17;;;18.20;99.90;;;;;;5048987;28;20052;-78
2023/09/24 11:10:49;;;;;;;3.38;1.05;;;18.30;99.90;;;;;;5059487;28;20523;-77
2023/09/24 11:13:15;;;;;;;6.68;1.98;;;18.30;99.90;;;;;;5043823;28;20066;-78
2023/09/24 11:15:44;;;;;;;;;;;18.40;99.90;;;;;;5049532;28;20053;-78
2023/09/24 11:18:13;;;;;;;4.30;1.20;;;18.50;99.90;;;;;;5045456;28;20418;-77
2023/09/24 11:20:46;;;;;;;5.40;1.15;;;18.50;99.90;;;;;;5043816;28;20051;-78
2023/09/24 11:23:14;;;;;;;3.67;1.10;;;18.60;99.90;;;;;;5048462;28;20508;-78
2023/09/24 11:25:46;;;;;;;3.78;0.95;;;18.60;99.90;;;;;;5038517;28;20078;-79
2023/09/24 11:28:15;;;;;;;2.03;0.95;;;18.60;99.90;;;;;;5048006;28;20051;-78
2023/09/24 11:30:49;;;;;;;3.85;1.00;;;18.60;99.90;;;;;;5046881;28;20048;-78
2023/09/24 11:33:17;;;;;;;3.40;1.00;;;18.60;99.90;;;;;;5045440;28;20055;-79
2023/09/24 11:35:55;;;;;;;2.92;0.82;;;18.70;99.90;;;;;;5060730;28;20049;-79
2023/09/24 11:38:34;;;;;;;3.72;1.38;;;18.60;99.90;;;;;;5049749;28;20119;-78
2023/09/24 11:41:12;;;;;;;6.07;1.55;;;18.70;99.90;;;;;;5035032;28;20202;-77
2023/09/24 11:43:44;;;;;;;5.03;1.05;;;18.70;99.90;;;;;;5034767;28;20036;-75
2023/09/24 11:46:17;;;;;;;3.67;1.08;;;18.80;99.90;;;;;;5044715;28;20512;-76
2023/09/24 11:48:45;;;;;;;3.25;1.05;;;18.80;99.90;;;;;;5042801;28;20150;-75
2023/09/24 11:51:14;;;;;;;2.25;0.85;;;18.80;99.90;;;;;;5026729;28;20045;-75
2023/09/24 11:53:43;;;;;;;2.33;0.80;;;18.80;99.90;;;;;;5047662;28;20036;-78
2023/09/24 11:56:11;;;;;;;3.20;1.10;;;18.70;99.90;;;;;;5049344;28;20400;-78
2023/09/24 11:58:37;;;;;;;4.05;1.20;;;18.70;99.90;;;;;;5049815;28;20040;-79
2023/09/24 12:01:13;;;;;;;4.45;1.42;;;18.70;99.90;;;;;;5033982;28;20071;-77
2023/09/24 12:03:42;;;;;;;3.50;0.90;;;18.70;99.90;;;;;;5042018;28;20051;-75
2023/09/24 12:06:13;;;;;;;3.20;0.98;;;18.70;99.90;;;;;;5041614;28;20054;-78
2023/09/24 12:08:39;;;;;;;3.28;0.80;;;18.80;99.90;;;;;;5025477;28;20127;-77
2023/09/24 12:11:05;;;;;;;6.85;1.38;;;18.90;99.90;;;;;;5032216;28;20075;-74
2023/09/24 12:13:31;;;;;;;4.05;1.10;;;19.00;99.90;;;;;;5059787;28;20044;-74
2023/09/24 12:15:59;;;;;;;7.50;1.92;;;19.10;99.90;;;;;;5059812;28;20052;-76
2023/09/24 12:18:25;;;;;;;4.28;1.10;;;19.20;99.90;;;;;;5041648;28;20045;-75
2023/09/24 12:20:51;;;;;;;4.45;1.10;;;19.30;99.90;;;;;;5056058;28;20409;-75
2023/09/24 12:23:16;;;;;;;2.65;1.00;;;19.40;99.90;;;;;;5026541;28;20037;-79
2023/09/24 12:25:43;;;;;;;3.22;1.45;;;19.50;99.90;;;;;;5052252;28;20055;-77
2023/09/24 12:28:11;;;;;;;2.65;0.73;;;19.60;99.90;;;;;;5060806;28;20053;-81
2023/09/24 12:30:40;;;;;;;3.83;0.80;;;19.50;99.90;;;;;;5035865;28;20040;-78
2023/09/24 12:33:06;;;;;;;3.08;0.90;;;19.50;99.90;;;;;;5047266;28;20503;-77
2023/09/24 12:35:34;;;;;;;;;;;19.50;99.90;;;;;;5050645;28;20194;-78
2023/09/24 12:38:03;;;;;;;1.83;0.70;;;19.40;99.90;;;;;;5049147;28;20003;-78
2023/09/24 12:40:29;;;;;;;4.05;1.10;;;19.30;99.90;;;;;;5049435;28;20105;-77
2023/09/24 12:42:58;;;;;;;3.55;1.08;;;19.40;99.90;;;;;;5030596;28;20514;-78
2023/09/24 12:45:23;;;;;;;4.57;1.05;;;19.40;99.90;;;;;;5047327;28;20046;-76
2023/09/24 12:47:49;;;;;;;4.43;1.40;;;19.30;99.90;;;;;;5043910;28;20059;-76
2023/09/24 12:50:15;;;;;;;2.63;0.98;;;19.30;99.90;;;;;;5049883;28;20050;-76
2023/09/24 12:52:45;;;;;;;4.20;1.15;;;19.20;99.90;;;;;;5048002;28;20087;-77
2023/09/24 12:55:18;;;;;;;3.25;1.00;;;19.10;99.90;;;;;;5041348;28;20372;-78
2023/09/24 12:57:45;;;;;;;4.15;1.00;;;19.00;99.90;;;;;;5030307;28;20049;-75
2023/09/24 13:00:12;;;;;;;5.63;1.33;;;18.90;99.90;;;;;;5041545;28;20045;-76